Time;durP1;ratioP1;P1;durP2;ratioP2;P2;SDS_P1;SDS_P2;PMS_P1;PMS_P2;Temp;Humidity;BMP_temperature;BMP_pressure;BME280_temperature;BME280_humidity;BME280_pressure;Samples;Min_cycle;Max_cycle;Signal;HPM_P1;HPM_P2
2021/08/21 00:03:30;;;;;;;15.32;6.05;;;;;;;;;;20830861;28;20050;-65
2021/08/21 00:13:32;;;;;;;7.75;5.65;;;;;;;;;;20830007;28;20064;-66
2021/08/21 00:23:34;;;;;;;8.27;5.50;;;;;;;;;;20830354;28;20047;-64
2021/08/21 00:33:37;;;;;;;9.95;5.38;;;;;;;;;;20829138;28;20064;-65
2021/08/21 00:43:40;;;;;;;8.63;5.10;;;;;;;;;;20828790;28;20056;-65
2021/08/21 00:53:42;;;;;;;12.77;5.22;;;;;;;;;;20826895;28;20451;-65
2021/08/21 01:03:45;;;;;;;14.63;5.90;;;;;;;;;;20827162;28;20053;-64
2021/08/21 01:13:47;;;;;;;9.70;5.65;;;;;;;;;;20826321;28;20106;-65
2021/08/21 01:23:49;;;;;;;9.10;5.38;;;;;;;;;;20825676;28;20045;-66
2021/08/21 01:33:54;;;;;;;12.20;6.55;;;;;;;;;;20825192;28;20053;-64
2021/08/21 01:43:59;;;;;;;12.63;5.97;;;;;;;;;;20825195;28;20128;-65
2021/08/21 01:54:15;;;;;;;11.40;5.50;;;;;;;;;;20824199;28;20053;-65
2021/08/21 02:04:30;;;;;;;9.48;5.10;;;;;;;;;;20884966;28;20049;-65
2021/08/21 02:14:36;;;;;;;11.20;5.88;;;;;;;;;;20823484;28;20061;-63
2021/08/21 02:24:51;;;;;;;17.58;7.55;;;;;;;;;;20822049;28;20056;-64
2021/08/21 02:34:56;;;;;;;14.93;6.30;;;;;;;;;;20821524;28;20053;-64
2021/08/21 02:44:59;;;;;;;17.60;11.52;;;;;;;;;;20821028;28;20054;-64
2021/08/21 02:55:03;;;;;;;33.97;21.77;;;;;;;;;;20820893;28;20057;-63
2021/08/21 03:05:07;;;;;;;22.85;16.40;;;;;;;;;;20819532;28;20425;-64
2021/08/21 03:15:09;;;;;;;18.52;14.20;;;;;;;;;;20818513;28;20046;-64
2021/08/21 03:25:13;;;;;;;17.40;11.70;;;;;;;;;;20886739;28;20053;-64
2021/08/21 03:35:16;;;;;;;20.40;10.23;;;;;;;;;;20817893;28;20355;-65
2021/08/21 03:45:19;;;;;;;19.08;8.13;;;;;;;;;;20817313;28;20544;-63
2021/08/21 03:55:21;;;;;;;10.60;5.57;;;;;;;;;;20816850;28;20128;-64
2021/08/21 04:05:27;;;;;;;10.75;6.32;;;;;;;;;;20815928;28;20062;-65
2021/08/21 04:15:30;;;;;;;8.07;5.97;;;;;;;;;;20816595;28;20089;-64
2021/08/21 04:25:33;;;;;;;10.63;5.10;;;;;;;;;;20824200;28;20383;-64
2021/08/21 04:35:35;;;;;;;;;;;;;;;;;;20829855;28;20053;-64
2021/08/21 04:45:37;;;;;;;7.47;4.70;;;;;;;;;;20828318;28;20407;-64
2021/08/21 04:55:39;;;;;;;7.38;5.28;;;;;;;;;;20827459;28;20061;-64
2021/08/21 05:05:43;;;;;;;12.93;8.43;;;;;;;;;;20826753;28;20057;-63
2021/08/21 05:15:46;;;;;;;24.35;16.08;;;;;;;;;;20826825;28;20049;-63
2021/08/21 05:25:49;;;;;;;15.57;8.68;;;;;;;;;;20826441;28;20050;-64
2021/08/21 05:35:52;;;;;;;11.40;7.55;;;;;;;;;;20824737;28;20055;-63
2021/08/21 05:45:55;;;;;;;15.65;7.50;;;;;;;;;;20824588;28;20490;-63
2021/08/21 05:55:57;;;;;;;14.15;7.40;;;;;;;;;;20824711;28;20394;-63
2021/08/21 06:05:59;;;;;;;13.30;6.60;;;;;;;;;;20823622;27;20562;-65
2021/08/21 06:16:02;;;;;;;10.18;5.22;;;;;;;;;;20822461;28;20049;-64
2021/08/21 06:26:04;;;;;;;8.30;5.23;;;;;;;;;;20821973;28;20053;-65
2021/08/21 06:36:06;;;;;;;9.07;5.47;;;;;;;;;;20888787;28;20049;-63
2021/08/21 06:46:09;;;;;;;9.68;5.78;;;;;;;;;;20820007;28;20478;-64
2021/08/21 06:56:11;;;;;;;9.27;6.07;;;;;;;;;;20820799;28;20053;-64
2021/08/21 07:06:13;;;;;;;10.50;5.43;;;;;;;;;;20821028;28;20060;-65
2021/08/21 07:16:16;;;;;;;15.00;5.30;;;;;;;;;;20823800;28;20046;-65
2021/08/21 07:26:18;;;;;;;9.80;5.05;;;;;;;;;;20821919;28;20128;-65
2021/08/21 07:36:21;;;;;;;8.35;4.72;;;;;;;;;;20818491;28;20072;-65
2021/08/21 07:46:23;;;;;;;10.95;4.45;;;;;;;;;;20817519;28;20050;-66
2021/08/21 07:56:26;;;;;;;9.27;4.00;;;;;;;;;;20819218;28;20049;-65
2021/08/21 08:06:29;;;;;;;6.50;3.80;;;;;;;;;;20898163;28;20149;-66
2021/08/21 08:16:31;;;;;;;6.80;3.72;;;;;;;;;;20830066;28;20059;-65
2021/08/21 08:26:33;;;;;;;6.03;4.20;;;;;;;;;;20829415;28;20074;-65
2021/08/21 08:36:36;;;;;;;7.82;3.95;;;;;;;;;;20896783;28;20049;-65
2021/08/21 08:46:39;;;;;;;6.57;3.00;;;;;;;;;;20828521;27;20052;-66
2021/08/21 08:56:42;;;;;;;9.65;4.20;;;;;;;;;;20827915;28;20081;-65
2021/08/21 09:06:45;;;;;;;8.52;3.70;;;;;;;;;;20894297;28;20418;-65
2021/08/21 09:16:49;;;;;;;8.80;3.83;;;;;;;;;;20826410;28;20505;-67
2021/08/21 09:26:52;;;;;;;8.30;3.85;;;;;;;;;;20826064;28;20451;-65
2021/08/21 09:36:56;;;;;;;11.20;3.70;;;;;;;;;;20824880;28;20128;-64
2021/08/21 09:47:23;;;;;;;6.22;3.28;;;;;;;;;;20892437;28;20985;-65
2021/08/21 09:57:25;;;;;;;9.10;7.18;;;;;;;;;;20824040;28;20056;-65
2021/08/21 10:07:41;;;;;;;9.52;4.40;;;;;;;;;;20822970;28;20057;-65
2021/08/21 10:17:44;;;;;;;9.43;4.65;;;;;;;;;;20823116;28;20052;-66
2021/08/21 10:27:53;;;;;;;8.07;4.32;;;;;;;;;;20821418;28;20053;-65
2021/08/21 10:37:55;;;;;;;7.88;3.58;;;;;;;;;;20820803;28;20045;-65
2021/08/21 10:47:56;;;;;;;7.20;6.38;;;;;;;;;;20887753;28;20076;-66
2021/08/21 10:58:05;;;;;;;7.35;5.47;;;;;;;;;;20818848;28;20128;-65
2021/08/21 11:08:07;;;;;;;9.45;4.53;;;;;;;;;;20819191;28;20060;-65
2021/08/21 11:18:21;;;;;;;5.18;3.55;;;;;;;;;;20885757;28;20585;-65
2021/08/21 11:28:30;;;;;;;6.68;2.83;;;;;;;;;;20817833;28;20478;-66
2021/08/21 11:38:38;;;;;;;7.93;3.60;;;;;;;;;;20817483;28;20079;-66
2021/08/21 11:48:41;;;;;;;6.20;3.30;;;;;;;;;;20816782;28;20053;-65
2021/08/21 11:58:46;;;;;;;6.45;3.38;;;;;;;;;;20817248;28;20121;-66
2021/08/21 12:08:48;;;;;;;6.45;3.35;;;;;;;;;;20883779;28;20593;-65
2021/08/21 12:18:53;;;;;;;4.50;3.08;;;;;;;;;;20816261;28;20045;-67
2021/08/21 12:28:55;;;;;;;6.93;3.90;;;;;;;;;;20815299;28;20049;-66
2021/08/21 12:39:09;;;;;;;5.47;3.35;;;;;;;;;;20815082;28;20050;-66
2021/08/21 12:49:11;;;;;;;6.25;4.50;;;;;;;;;;20824880;28;20075;-66
2021/08/21 12:59:14;;;;;;;7.28;3.58;;;;;;;;;;20827718;28;20059;-65
2021/08/21 13:09:16;;;;;;;5.93;3.53;;;;;;;;;;20826061;28;20061;-65
2021/08/21 13:19:18;;;;;;;6.57;3.80;;;;;;;;;;20826121;28;20149;-65
2021/08/21 13:29:20;;;;;;;12.00;7.93;;;;;;;;;;20825708;28;20045;-66
2021/08/21 13:39:23;;;;;;;4.47;3.42;;;;;;;;;;20825672;28;20442;-66
2021/08/21 13:49:26;;;;;;;7.35;3.58;;;;;;;;;;20824456;28;20054;-66
2021/08/21 13:59:28;;;;;;;8.45;3.40;;;;;;;;;;20823114;28;20076;-65
2021/08/21 14:09:30;;;;;;;6.65;2.80;;;;;;;;;;20822418;28;20450;-66
2021/08/21 14:19:32;;;;;;;6.32;3.40;;;;;;;;;;20822149;28;20052;-66
2021/08/21 14:29:34;;;;;;;6.05;2.60;;;;;;;;;;20820963;28;20092;-67
2021/08/21 14:39:36;;;;;;;5.15;2.65;;;;;;;;;;20821083;28;20121;-67
2021/08/21 14:49:38;;;;;;;5.95;2.75;;;;;;;;;;20820523;28;20066;-66
2021/08/21 14:59:40;;;;;;;9.65;6.20;;;;;;;;;;20820549;28;20531;-66
2021/08/21 15:09:42;;;;;;;6.78;3.30;;;;;;;;;;20818749;28;20068;-67
2021/08/21 15:19:44;;;;;;;4.05;2.80;;;;;;;;;;20818680;28;20095;-65
2021/08/21 15:29:46;;;;;;;7.70;5.32;;;;;;;;;;20819127;28;20378;-66
2021/08/21 15:39:48;;;;;;;6.43;2.70;;;;;;;;;;20818371;28;20106;-65
2021/08/21 15:49:52;;;;;;;5.07;2.70;;;;;;;;;;20817231;28;20100;-65
2021/08/21 15:59:55;;;;;;;4.82;2.90;;;;;;;;;;20816499;28;20049;-65
2021/08/21 16:09:58;;;;;;;4.30;2.72;;;;;;;;;;20815220;28;20065;-65
2021/08/21 16:20:00;;;;;;;4.32;2.60;;;;;;;;;;20821433;28;20050;-65
2021/08/21 16:30:02;;;;;;;3.83;2.40;;;;;;;;;;20896575;28;20049;-66
2021/08/21 16:40:05;;;;;;;3.80;2.22;;;;;;;;;;20828866;28;20125;-65
2021/08/21 16:50:07;;;;;;;5.43;2.30;;;;;;;;;;20827627;28;20450;-65
2021/08/21 17:00:09;;;;;;;5.82;2.10;;;;;;;;;;20827375;28;20045;-65
2021/08/21 17:10:13;;;;;;;3.17;2.08;;;;;;;;;;20825834;28;20053;-67
2021/08/21 17:20:17;;;;;;;3.10;2.17;;;;;;;;;;20826694;28;20041;-66
2021/08/21 17:30:18;;;;;;;4.30;2.00;;;;;;;;;;20826009;28;20053;-68
2021/08/21 17:40:21;;;;;;;4.75;2.00;;;;;;;;;;20825883;28;20409;-65
2021/08/21 17:50:23;;;;;;;4.82;2.78;;;;;;;;;;20823933;28;20060;-66
2021/08/21 18:00:25;;;;;;;4.47;2.30;;;;;;;;;;20822649;28;20098;-67
2021/08/21 18:10:27;;;;;;;4.25;2.25;;;;;;;;;;20821863;28;20493;-67
2021/08/21 18:20:29;;;;;;;4.78;2.78;;;;;;;;;;20821209;28;20050;-66
2021/08/21 18:30:31;;;;;;;3.63;2.35;;;;;;;;;;20821104;28;20132;-67
2021/08/21 18:40:33;;;;;;;6.97;4.85;;;;;;;;;;20821192;28;20046;-66
2021/08/21 18:50:35;;;;;;;3.28;1.90;;;;;;;;;;20820595;28;20450;-66
2021/08/21 19:00:38;;;;;;;5.80;2.65;;;;;;;;;;20819941;28;20136;-66
2021/08/21 19:10:40;;;;;;;6.75;2.92;;;;;;;;;;20886372;28;20447;-66
2021/08/21 19:20:43;;;;;;;3.80;2.90;;;;;;;;;;20886410;28;20042;-67
2021/08/21 19:30:45;;;;;;;5.95;2.80;;;;;;;;;;20817857;28;20046;-67
2021/08/21 19:40:48;;;;;;;4.75;3.20;;;;;;;;;;20818286;28;20049;-66
2021/08/21 19:50:50;;;;;;;11.07;4.40;;;;;;;;;;20817849;28;20397;-66
2021/08/21 20:00:52;;;;;;;7.93;4.07;;;;;;;;;;20831656;28;20450;-65
2021/08/21 20:10:54;;;;;;;7.05;4.13;;;;;;;;;;20830755;28;20521;-66
2021/08/21 20:20:56;;;;;;;8.27;5.00;;;;;;;;;;20898996;28;20050;-66
2021/08/21 20:30:58;;;;;;;11.75;6.68;;;;;;;;;;20830400;28;20434;-65
2021/08/21 20:41:00;;;;;;;10.07;6.80;;;;;;;;;;20829440;28;20052;-66
2021/08/21 20:51:02;;;;;;;10.82;5.95;;;;;;;;;;20829334;28;20104;-66
2021/08/21 21:01:05;;;;;;;8.63;5.43;;;;;;;;;;20828162;28;20080;-65
2021/08/21 21:11:08;;;;;;;10.20;6.40;;;;;;;;;;20827317;28;20193;-66
2021/08/21 21:21:10;;;;;;;10.10;4.30;;;;;;;;;;20895503;28;20041;-66
2021/08/21 21:31:12;;;;;;;9.77;4.40;;;;;;;;;;20841609;28;20093;-66
2021/08/21 21:41:14;;;;;;;10.38;5.78;;;;;;;;;;20844283;28;20056;-66
2021/08/21 21:51:16;;;;;;;12.43;5.50;;;;;;;;;;20825739;28;20050;-66
2021/08/21 22:01:19;;;;;;;8.73;5.78;;;;;;;;;;20824079;28;20076;-66
2021/08/21 22:11:21;;;;;;;7.50;4.90;;;;;;;;;;20823379;28;20058;-68
2021/08/21 22:21:23;;;;;;;24.58;18.83;;;;;;;;;;20823272;28;20074;-68
2021/08/21 22:31:28;;;;;;;19.52;12.43;;;;;;;;;;20823074;28;20053;-67
2021/08/21 22:41:30;;;;;;;8.57;5.32;;;;;;;;;;20821602;28;20245;-69
2021/08/21 22:51:34;;;;;;;8.65;4.13;;;;;;;;;;20820910;28;20054;-66
2021/08/21 23:01:37;;;;;;;8.10;4.25;;;;;;;;;;20820440;28;20048;-66
2021/08/21 23:11:40;;;;;;;8.63;3.30;;;;;;;;;;20819502;28;20062;-64
2021/08/21 23:21:43;;;;;;;6.40;4.38;;;;;;;;;;20818827;28;20049;-63
2021/08/21 23:31:52;;;;;;;10.85;6.03;;;;;;;;;;20817673;28;20103;-65
2021/08/21 23:41:55;;;;;;;15.40;11.50;;;;;;;;;;20818271;28;20080;-65
2021/08/21 23:51:58;;;;;;;9.13;5.22;;;;;;;;;;20817617;28;20442;-63
